sensor_id;sensor_type;location;lat;lon;timestamp;pressure;altitude;pressure_sealevel;temperature;humidity
58243;BME280;50118;53.232;8.252;2023-08-06T00:01:45;100591.28;;;13.10;100.00
58243;BME280;50118;53.232;8.252;2023-08-06T00:04:10;100588.44;;;13.12;100.00
58243;BME280;50118;53.232;8.252;2023-08-06T00:06:35;100589.59;;;13.01;100.00
58243;BME280;50118;53.232;8.252;2023-08-06T00:09:01;100582.41;;;13.01;100.00
58243;BME280;50118;53.232;8.252;2023-08-06T00:11:26;100580.72;;;12.92;100.00
58243;BME280;50118;53.232;8.252;2023-08-06T00:13:52;100572.50;;;12.85;100.00
58243;BME280;50118;53.232;8.252;2023-08-06T00:16:17;100581.75;;;12.99;100.00
58243;BME280;50118;53.232;8.252;2023-08-06T00:18:43;100574.56;;;13.00;100.00
58243;BME280;50118;53.232;8.252;2023-08-06T00:21:08;100574.56;;;13.00;100.00
58243;BME280;50118;53.232;8.252;2023-08-06T00:23:34;100570.56;;;12.96;100.00
58243;BME280;50118;53.232;8.252;2023-08-06T00:25:59;100572.53;;;12.94;100.00
58243;BME280;50118;53.232;8.252;2023-08-06T00:28:24;100564.00;;;12.90;100.00
58243;BME280;50118;53.232;8.252;2023-08-06T00:30:54;100562.69;;;12.86;100.00
58243;BME280;50118;53.232;8.252;2023-08-06T00:33:20;100563.69;;;12.93;100.00
58243;BME280;50118;53.232;8.252;2023-08-06T00:35:45;100563.50;;;12.86;100.00
58243;BME280;50118;53.232;8.252;2023-08-06T00:38:11;100563.34;;;12.96;100.00
58243;BME280;50118;53.232;8.252;2023-08-06T00:40:37;100555.00;;;12.91;100.00
58243;BME280;50118;53.232;8.252;2023-08-06T00:43:02;100562.34;;;12.89;100.00
58243;BME280;50118;53.232;8.252;2023-08-06T00:45:28;100555.66;;;12.85;100.00
58243;BME280;50118;53.232;8.252;2023-08-06T00:47:55;100552.31;;;12.83;100.00
58243;BME280;50118;53.232;8.252;2023-08-06T00:50:21;100560.50;;;12.81;100.00
58243;BME280;50118;53.232;8.252;2023-08-06T00:52:48;100565.84;;;12.89;100.00
58243;BME280;50118;53.232;8.252;2023-08-06T00:55:14;100564.34;;;12.87;100.00
58243;BME280;50118;53.232;8.252;2023-08-06T00:57:40;100560.34;;;12.91;100.00
58243;BME280;50118;53.232;8.252;2023-08-06T01:00:06;100560.84;;;12.95;100.00
58243;BME280;50118;53.232;8.252;2023-08-06T01:02:32;100558.66;;;12.90;100.00
58243;BME280;50118;53.232;8.252;2023-08-06T01:04:58;100557.34;;;12.94;100.00
58243;BME280;50118;53.232;8.252;2023-08-06T01:07:40;100557.34;;;12.94;100.00
58243;BME280;50118;53.232;8.252;2023-08-06T01:10:23;100553.13;;;12.83;100.00
58243;BME280;50118;53.232;8.252;2023-08-06T01:13:13;100549.00;;;12.89;100.00
58243;BME280;50118;53.232;8.252;2023-08-06T01:15:46;100544.63;;;12.80;100.00
58243;BME280;50118;53.232;8.252;2023-08-06T01:18:15;100544.13;;;12.84;100.00
58243;BME280;50118;53.232;8.252;2023-08-06T01:20:41;100547.66;;;12.93;100.00
58243;BME280;50118;53.232;8.252;2023-08-06T01:23:06;100546.31;;;12.89;100.00
58243;BME280;50118;53.232;8.252;2023-08-06T01:28:26;100537.28;;;12.90;100.00
58243;BME280;50118;53.232;8.252;2023-08-06T01:30:55;100537.59;;;12.87;100.00
58243;BME280;50118;53.232;8.252;2023-08-06T01:33:24;100542.28;;;12.85;100.00
58243;BME280;50118;53.232;8.252;2023-08-06T01:35:53;100531.09;;;12.81;100.00
58243;BME280;50118;53.232;8.252;2023-08-06T01:38:20;100530.94;;;12.83;100.00
58243;BME280;50118;53.232;8.252;2023-08-06T01:40:45;100526.91;;;12.87;100.00
58243;BME280;50118;53.232;8.252;2023-08-06T01:43:10;100525.59;;;12.91;100.00
58243;BME280;50118;53.232;8.252;2023-08-06T01:45:36;100524.25;;;12.95;100.00
58243;BME280;50118;53.232;8.252;2023-08-06T01:48:01;100522.59;;;12.94;100.00
58243;BME280;50118;53.232;8.252;2023-08-06T01:50:34;100515.56;;;12.85;100.00
58243;BME280;50118;53.232;8.252;2023-08-06T01:52:59;100517.56;;;12.91;100.00
58243;BME280;50118;53.232;8.252;2023-08-06T01:55:25;100512.72;;;12.86;100.00
58243;BME280;50118;53.232;8.252;2023-08-06T01:57:50;100510.53;;;12.82;100.00
58243;BME280;50118;53.232;8.252;2023-08-06T02:00:16;100513.38;;;12.80;100.00
58243;BME280;50118;53.232;8.252;2023-08-06T02:02:41;100509.88;;;12.80;100.00
58243;BME280;50118;53.232;8.252;2023-08-06T02:05:07;100511.22;;;12.84;100.00
58243;BME280;50118;53.232;8.252;2023-08-06T02:07:32;100509.53;;;12.83;100.00
58243;BME280;50118;53.232;8.252;2023-08-06T02:09:57;100511.03;;;12.85;100.00
58243;BME280;50118;53.232;8.252;2023-08-06T02:12:23;100515.56;;;12.85;100.00
58243;BME280;50118;53.232;8.252;2023-08-06T02:14:48;100503.19;;;12.76;100.00
58243;BME280;50118;53.232;8.252;2023-08-06T02:17:14;100508.22;;;12.79;100.00
58243;BME280;50118;53.232;8.252;2023-08-06T02:19:39;100509.53;;;12.83;100.00
58243;BME280;50118;53.232;8.252;2023-08-06T02:22:05;100514.56;;;12.86;100.00
58243;BME280;50118;53.232;8.252;2023-08-06T02:24:30;100508.72;;;12.82;100.00
58243;BME280;50118;53.232;8.252;2023-08-06T02:26:56;100506.19;;;12.81;100.00
58243;BME280;50118;53.232;8.252;2023-08-06T02:29:21;100509.03;;;12.79;100.00
58243;BME280;50118;53.232;8.252;2023-08-06T02:31:47;100508.22;;;12.79;100.00
58243;BME280;50118;53.232;8.252;2023-08-06T02:34:12;100508.72;;;12.82;100.00
58243;BME280;50118;53.232;8.252;2023-08-06T02:36:38;100509.53;;;12.83;100.00
58243;BME280;50118;53.232;8.252;2023-08-06T02:39:03;100504.19;;;12.83;100.00
58243;BME280;50118;53.232;8.252;2023-08-06T02:41:29;100503.19;;;12.76;100.00
58243;BME280;50118;53.232;8.252;2023-08-06T02:43:54;100498.00;;;12.74;100.00
58243;BME280;50118;53.232;8.252;2023-08-06T02:46:19;100496.84;;;12.68;100.00
58243;BME280;50118;53.232;8.252;2023-08-06T02:48:45;100498.00;;;12.74;100.00
58243;BME280;50118;53.232;8.252;2023-08-06T02:51:11;100496.66;;;12.70;100.00
58243;BME280;50118;53.232;8.252;2023-08-06T02:53:36;100494.34;;;12.67;100.00
58243;BME280;50118;53.232;8.252;2023-08-06T02:56:02;100496.84;;;12.68;100.00
58243;BME280;50118;53.232;8.252;2023-08-06T02:58:27;100488.63;;;12.70;100.00
58243;BME280;50118;53.232;8.252;2023-08-06T03:01:06;100474.78;;;12.66;100.00
58243;BME280;50118;53.232;8.252;2023-08-06T03:03:32;100474.78;;;12.66;100.00
58243;BME280;50118;53.232;8.252;2023-08-06T03:05:58;100472.09;;;12.66;100.00
58243;BME280;50118;53.232;8.252;2023-08-06T03:08:24;100475.47;;;12.68;100.00
58243;BME280;50118;53.232;8.252;2023-08-06T03:10:50;100481.47;;;12.70;100.00
58243;BME280;50118;53.232;8.252;2023-08-06T03:13:16;100477.44;;;12.66;100.00
58243;BME280;50118;53.232;8.252;2023-08-06T03:15:42;100472.13;;;12.58;100.00
58243;BME280;50118;53.232;8.252;2023-08-06T03:18:07;100474.78;;;12.58;100.00
58243;BME280;50118;53.232;8.252;2023-08-06T03:20:33;100471.59;;;12.63;100.00
58243;BME280;50118;53.232;8.252;2023-08-06T03:22:58;100462.75;;;12.62;100.00
58243;BME280;50118;53.232;8.252;2023-08-06T03:25:24;100466.78;;;12.58;100.00
58243;BME280;50118;53.232;8.252;2023-08-06T03:27:49;100464.09;;;12.58;100.00
58243;BME280;50118;53.232;8.252;2023-08-06T03:30:15;100454.75;;;12.62;100.00
58243;BME280;50118;53.232;8.252;2023-08-06T03:32:40;100452.06;;;12.54;100.00
58243;BME280;50118;53.232;8.252;2023-08-06T03:35:06;100452.06;;;12.54;100.00
58243;BME280;50118;53.232;8.252;2023-08-06T03:37:32;100448.06;;;12.50;100.00
58243;BME280;50118;53.232;8.252;2023-08-06T03:39:57;100448.53;;;12.45;100.00
58243;BME280;50118;53.232;8.252;2023-08-06T03:42:22;100441.16;;;12.39;100.00
58243;BME280;50118;53.232;8.252;2023-08-06T03:44:48;100440.00;;;12.33;100.00
58243;BME280;50118;53.232;8.252;2023-08-06T03:47:13;100443.34;;;12.36;100.00
58243;BME280;50118;53.232;8.252;2023-08-06T03:49:39;100444.34;;;12.43;100.00
58243;BME280;50118;53.232;8.252;2023-08-06T03:52:08;100440.69;;;12.44;100.00
58243;BME280;50118;53.232;8.252;2023-08-06T03:54:34;100435.34;;;12.44;100.00
58243;BME280;50118;53.232;8.252;2023-08-06T03:56:59;100435.03;;;12.47;100.00
58243;BME280;50118;53.232;8.252;2023-08-06T03:59:24;100440.69;;;12.52;100.00
58243;BME280;50118;53.232;8.252;2023-08-06T04:01:50;100431.53;;;12.46;100.00
58243;BME280;50118;53.232;8.252;2023-08-06T04:04:16;100433.84;;;12.41;100.00
58243;BME280;50118;53.232;8.252;2023-08-06T04:06:41;100431.19;;;12.41;100.00
58243;BME280;50118;53.232;8.252;2023-08-06T04:09:06;100416.97;;;12.41;100.00
58243;BME280;50118;53.232;8.252;2023-08-06T04:11:32;100415.66;;;12.45;100.00
58243;BME280;50118;53.232;8.252;2023-08-06T04:13:57;100418.16;;;12.46;100.00
58243;BME280;50118;53.232;8.252;2023-08-06T04:16:23;100429.34;;;12.50;100.00
58243;BME280;50118;53.232;8.252;2023-08-06T04:18:48;100425.97;;;12.48;100.00
58243;BME280;50118;53.232;8.252;2023-08-06T04:21:14;100418.31;;;12.53;100.00
58243;BME280;50118;53.232;8.252;2023-08-06T04:23:39;100432.69;;;12.52;100.00
58243;BME280;50118;53.232;8.252;2023-08-06T04:26:05;100428.34;;;12.59;100.00
58243;BME280;50118;53.232;8.252;2023-08-06T04:28:30;100431.19;;;12.58;100.00
58243;BME280;50118;53.232;8.252;2023-08-06T04:30:56;100429.16;;;12.60;100.00
58243;BME280;50118;53.232;8.252;2023-08-06T04:33:21;100436.53;;;12.66;100.00
58243;BME280;50118;53.232;8.252;2023-08-06T04:35:47;100434.19;;;12.71;100.00
58243;BME280;50118;53.232;8.252;2023-08-06T04:38:12;100433.72;;;12.76;100.00
58243;BME280;50118;53.232;8.252;2023-08-06T04:40:38;100435.69;;;12.90;100.00
58243;BME280;50118;53.232;8.252;2023-08-06T04:43:03;100436.88;;;12.87;100.00
58243;BME280;50118;53.232;8.252;2023-08-06T04:45:29;100437.88;;;12.86;100.00
58243;BME280;50118;53.232;8.252;2023-08-06T04:47:54;100432.69;;;12.85;100.00
58243;BME280;50118;53.232;8.252;2023-08-06T04:50:20;100429.53;;;12.81;100.00
58243;BME280;50118;53.232;8.252;2023-08-06T04:52:45;100435.19;;;12.86;100.00
58243;BME280;50118;53.232;8.252;2023-08-06T04:55:11;100434.69;;;12.83;100.00
58243;BME280;50118;53.232;8.252;2023-08-06T04:57:36;100434.03;;;12.89;100.00
58243;BME280;50118;53.232;8.252;2023-08-06T05:00:02;100439.72;;;12.94;100.00
58243;BME280;50118;53.232;8.252;2023-08-06T05:02:29;100439.03;;;13.00;100.00
58243;BME280;50118;53.232;8.252;2023-08-06T05:04:57;100439.19;;;13.07;100.00
58243;BME280;50118;53.232;8.252;2023-08-06T05:07:22;100438.69;;;12.95;100.00
58243;BME280;50118;53.232;8.252;2023-08-06T05:09:48;100433.19;;;13.05;100.00
58243;BME280;50118;53.232;8.252;2023-08-06T05:12:13;100440.38;;;12.96;100.00
58243;BME280;50118;53.232;8.252;2023-08-06T05:14:39;100440.38;;;13.04;100.00
58243;BME280;50118;53.232;8.252;2023-08-06T05:17:04;100435.00;;;13.13;100.00
58243;BME280;50118;53.232;8.252;2023-08-06T05:19:30;100444.38;;;13.17;100.00
58243;BME280;50118;53.232;8.252;2023-08-06T05:21:55;100446.72;;;13.03;100.00
58243;BME280;50118;53.232;8.252;2023-08-06T05:24:20;100449.38;;;13.12;100.00
58243;BME280;50118;53.232;8.252;2023-08-06T05:26:46;100446.72;;;13.20;100.00
58243;BME280;50118;53.232;8.252;2023-08-06T05:29:13;100440.84;;;13.33;100.00
58243;BME280;50118;53.232;8.252;2023-08-06T05:31:38;100449.00;;;13.31;100.00
58243;BME280;50118;53.232;8.252;2023-08-06T05:34:04;100447.38;;;13.30;100.00
58243;BME280;50118;53.232;8.252;2023-08-06T05:36:32;100445.19;;;13.25;100.00
58243;BME280;50118;53.232;8.252;2023-08-06T05:38:58;100442.38;;;13.35;100.00
58243;BME280;50118;53.232;8.252;2023-08-06T05:41:23;100447.03;;;13.17;100.00
58243;BME280;50118;53.232;8.252;2023-08-06T05:43:49;100440.66;;;13.26;100.00
58243;BME280;50118;53.232;8.252;2023-08-06T05:46:14;100447.06;;;13.33;100.00
58243;BME280;50118;53.232;8.252;2023-08-06T05:48:40;100444.84;;;13.45;100.00
58243;BME280;50118;53.232;8.252;2023-08-06T05:51:05;100446.72;;;13.20;100.00
58243;BME280;50118;53.232;8.252;2023-08-06T05:53:31;100442.69;;;13.24;100.00
58243;BME280;50118;53.232;8.252;2023-08-06T05:55:57;100449.53;;;13.35;100.00
58243;BME280;50118;53.232;8.252;2023-08-06T05:58:22;100448.72;;;13.34;100.00
58243;BME280;50118;53.232;8.252;2023-08-06T06:00:49;100444.00;;;13.44;100.00
58243;BME280;50118;53.232;8.252;2023-08-06T06:03:16;100448.03;;;13.49;100.00
58243;BME280;50118;53.232;8.252;2023-08-06T06:05:41;100446.19;;;13.49;100.00
58243;BME280;50118;53.232;8.252;2023-08-06T06:08:06;100452.19;;;13.51;100.00
58243;BME280;50118;53.232;8.252;2023-08-06T06:10:32;100446.19;;;13.49;100.00
58243;BME280;50118;53.232;8.252;2023-08-06T06:12:57;100446.97;;;13.66;100.00
58243;BME280;50118;53.232;8.252;2023-08-06T06:15:23;100439.41;;;13.78;100.00
58243;BME280;50118;53.232;8.252;2023-08-06T06:17:48;100441.28;;;13.69;100.00
58243;BME280;50118;53.232;8.252;2023-08-06T06:20:14;100443.97;;;13.61;100.00
58243;BME280;50118;53.232;8.252;2023-08-06T06:22:39;100438.63;;;13.61;100.00
58243;BME280;50118;53.232;8.252;2023-08-06T06:25:05;100443.34;;;13.51;100.00
58243;BME280;50118;53.232;8.252;2023-08-06T06:27:31;100435.28;;;13.59;100.00
58243;BME280;50118;53.232;8.252;2023-08-06T06:29:56;100436.09;;;13.68;100.00
58243;BME280;50118;53.232;8.252;2023-08-06T06:32:22;100440.91;;;13.72;100.00
58243;BME280;50118;53.232;8.252;2023-08-06T06:34:47;100445.16;;;13.98;100.00
58243;BME280;50118;53.232;8.252;2023-08-06T06:37:13;100445.94;;;14.15;100.00
58243;BME280;50118;53.232;8.252;2023-08-06T06:39:38;100450.34;;;14.31;100.00
58243;BME280;50118;53.232;8.252;2023-08-06T06:42:04;100459.25;;;14.23;100.00
58243;BME280;50118;53.232;8.252;2023-08-06T06:44:30;100451.34;;;14.30;100.00
58243;BME280;50118;53.232;8.252;2023-08-06T06:46:55;100451.06;;;14.48;100.00
58243;BME280;50118;53.232;8.252;2023-08-06T06:49:21;100451.53;;;14.60;100.00
58243;BME280;50118;53.232;8.252;2023-08-06T06:51:46;100455.84;;;14.61;100.00
58243;BME280;50118;53.232;8.252;2023-08-06T06:54:12;100450.06;;;14.17;100.00
58243;BME280;50118;53.232;8.252;2023-08-06T06:56:37;100454.28;;;14.43;100.00
58243;BME280;50118;53.232;8.252;2023-08-06T06:59:10;100450.97;;;14.87;100.00
58243;BME280;50118;53.232;8.252;2023-08-06T07:01:36;100456.56;;;15.01;100.00
58243;BME280;50118;53.232;8.252;2023-08-06T07:04:01;100449.38;;;15.16;100.00
58243;BME280;50118;53.232;8.252;2023-08-06T07:06:39;100451.38;;;14.76;100.00
58243;BME280;50118;53.232;8.252;2023-08-06T07:09:25;100461.59;;;14.81;100.00
58243;BME280;50118;53.232;8.252;2023-08-06T07:11:50;100448.81;;;14.83;100.00
58243;BME280;50118;53.232;8.252;2023-08-06T07:14:17;100450.63;;;14.90;100.00
58243;BME280;50118;53.232;8.252;2023-08-06T07:16:42;100456.44;;;15.17;100.00
58243;BME280;50118;53.232;8.252;2023-08-06T07:19:11;100457.31;;;15.09;100.00
58243;BME280;50118;53.232;8.252;2023-08-06T07:21:37;100450.94;;;15.25;100.00
58243;BME280;50118;53.232;8.252;2023-08-06T07:24:02;100451.34;;;15.52;100.00
58243;BME280;50118;53.232;8.252;2023-08-06T07:26:31;100453.47;;;15.42;100.00
58243;BME280;50118;53.232;8.252;2023-08-06T07:28:59;100455.06;;;14.98;100.00
58243;BME280;50118;53.232;8.252;2023-08-06T07:31:27;100453.59;;;14.96;100.00
58243;BME280;50118;53.232;8.252;2023-08-06T07:33:55;100460.88;;;15.40;100.00
58243;BME280;50118;53.232;8.252;2023-08-06T07:36:21;100461.00;;;15.61;100.00
58243;BME280;50118;53.232;8.252;2023-08-06T07:38:49;100458.75;;;15.35;100.00
58243;BME280;50118;53.232;8.252;2023-08-06T07:41:35;100464.13;;;15.35;100.00
58243;BME280;50118;53.232;8.252;2023-08-06T07:44:01;100467.38;;;15.60;100.00
58243;BME280;50118;53.232;8.252;2023-08-06T07:46:50;100472.03;;;15.96;100.00
58243;BME280;50118;53.232;8.252;2023-08-06T07:49:26;100471.47;;;15.86;100.00
58243;BME280;50118;53.232;8.252;2023-08-06T07:51:55;100478.53;;;15.87;100.00
58243;BME280;50118;53.232;8.252;2023-08-06T07:54:23;100473.28;;;16.15;100.00
58243;BME280;50118;53.232;8.252;2023-08-06T07:56:52;100469.03;;;16.21;100.00
58243;BME280;50118;53.232;8.252;2023-08-06T07:59:18;100468.00;;;16.07;100.00
58243;BME280;50118;53.232;8.252;2023-08-06T08:01:51;100470.41;;;16.17;100.00
58243;BME280;50118;53.232;8.252;2023-08-06T08:04:16;100471.13;;;16.25;100.00
58243;BME280;50118;53.232;8.252;2023-08-06T08:06:45;100472.06;;;16.54;100.00
58243;BME280;50118;53.232;8.252;2023-08-06T08:09:13;100472.59;;;16.43;100.00
58243;BME280;50118;53.232;8.252;2023-08-06T08:11:39;100471.88;;;16.56;100.00
58243;BME280;50118;53.232;8.252;2023-08-06T08:14:05;100471.31;;;16.82;100.00
58243;BME280;50118;53.232;8.252;2023-08-06T08:16:34;100466.88;;;17.17;100.00
58243;BME280;50118;53.232;8.252;2023-08-06T08:19:00;100463.75;;;17.77;100.00
58243;BME280;50118;53.232;8.252;2023-08-06T08:21:25;100466.25;;;18.20;100.00
58243;BME280;50118;53.232;8.252;2023-08-06T08:23:51;100465.78;;;19.32;96.79
58243;BME280;50118;53.232;8.252;2023-08-06T08:26:17;100470.94;;;19.67;93.75
58243;BME280;50118;53.232;8.252;2023-08-06T08:28:42;100469.44;;;18.44;100.00
58243;BME280;50118;53.232;8.252;2023-08-06T08:31:08;100462.28;;;18.16;100.00
58243;BME280;50118;53.232;8.252;2023-08-06T08:33:34;100457.34;;;18.26;100.00
58243;BME280;50118;53.232;8.252;2023-08-06T08:36:00;100458.91;;;18.76;100.00
58243;BME280;50118;53.232;8.252;2023-08-06T08:38:25;100452.25;;;18.72;100.00
58243;BME280;50118;53.232;8.252;2023-08-06T08:40:51;100445.47;;;19.16;99.33
58243;BME280;50118;53.232;8.252;2023-08-06T08:43:21;100449.38;;;19.33;94.35
58243;BME280;50118;53.232;8.252;2023-08-06T08:45:49;100436.25;;;19.50;97.43
58243;BME280;50118;53.232;8.252;2023-08-06T08:48:16;100442.47;;;20.55;91.96
58243;BME280;50118;53.232;8.252;2023-08-06T08:50:44;100431.84;;;20.92;87.03
58243;BME280;50118;53.232;8.252;2023-08-06T08:53:11;100430.03;;;19.50;89.57
58243;BME280;50118;53.232;8.252;2023-08-06T08:55:38;100428.75;;;19.59;95.19
58243;BME280;50118;53.232;8.252;2023-08-06T08:58:04;100424.59;;;19.63;92.55
58243;BME280;50118;53.232;8.252;2023-08-06T09:00:30;100427.34;;;19.36;93.81
58243;BME280;50118;53.232;8.252;2023-08-06T09:02:58;100429.97;;;19.76;91.77
58243;BME280;50118;53.232;8.252;2023-08-06T09:05:26;100426.41;;;20.60;88.86
58243;BME280;50118;53.232;8.252;2023-08-06T09:07:54;100424.50;;;21.17;79.50
58243;BME280;50118;53.232;8.252;2023-08-06T09:10:21;100428.94;;;21.74;75.67
58243;BME280;50118;53.232;8.252;2023-08-06T09:12:51;100422.94;;;21.53;81.84
58243;BME280;50118;53.232;8.252;2023-08-06T09:15:16;100416.25;;;20.87;87.15
58243;BME280;50118;53.232;8.252;2023-08-06T09:17:42;100430.56;;;21.38;78.97
58243;BME280;50118;53.232;8.252;2023-08-06T09:20:19;100425.88;;;20.44;83.18
58243;BME280;50118;53.232;8.252;2023-08-06T09:22:45;100433.44;;;21.43;80.04
58243;BME280;50118;53.232;8.252;2023-08-06T09:25:21;100426.06;;;22.06;76.60
58243;BME280;50118;53.232;8.252;2023-08-06T09:27:46;100420.50;;;22.73;75.89
58243;BME280;50118;53.232;8.252;2023-08-06T09:30:29;100426.47;;;22.40;76.80
58243;BME280;50118;53.232;8.252;2023-08-06T09:32:55;100431.88;;;20.85;79.35
58243;BME280;50118;53.232;8.252;2023-08-06T09:35:21;100421.44;;;20.25;83.04
58243;BME280;50118;53.232;8.252;2023-08-06T09:37:47;100426.25;;;20.55;85.30
58243;BME280;50118;53.232;8.252;2023-08-06T09:40:32;100429.38;;;22.08;75.64
58243;BME280;50118;53.232;8.252;2023-08-06T09:42:59;100433.25;;;22.30;75.50
58243;BME280;50118;53.232;8.252;2023-08-06T09:45:35;100432.72;;;21.54;77.89
58243;BME280;50118;53.232;8.252;2023-08-06T09:48:06;100429.97;;;20.22;88.54
58243;BME280;50118;53.232;8.252;2023-08-06T09:50:33;100428.78;;;20.18;87.10
58243;BME280;50118;53.232;8.252;2023-08-06T09:53:03;100428.66;;;20.69;84.37
58243;BME280;50118;53.232;8.252;2023-08-06T09:55:29;100429.59;;;21.32;81.80
58243;BME280;50118;53.232;8.252;2023-08-06T09:57:55;100432.41;;;21.81;79.07
58243;BME280;50118;53.232;8.252;2023-08-06T10:00:21;100437.63;;;22.13;77.83
58243;BME280;50118;53.232;8.252;2023-08-06T10:02:48;100427.16;;;21.49;78.37
58243;BME280;50118;53.232;8.252;2023-08-06T10:05:15;100431.31;;;21.45;77.57
58243;BME280;50118;53.232;8.252;2023-08-06T10:07:42;100418.59;;;22.01;76.26
58243;BME280;50118;53.232;8.252;2023-08-06T10:10:09;100424.38;;;22.05;71.28
58243;BME280;50118;53.232;8.252;2023-08-06T10:12:38;100423.00;;;21.03;83.79
58243;BME280;50118;53.232;8.252;2023-08-06T10:15:09;100421.63;;;19.85;85.08
58243;BME280;50118;53.232;8.252;2023-08-06T10:17:36;100417.69;;;20.58;86.66
58243;BME280;50118;53.232;8.252;2023-08-06T10:20:05;100423.75;;;20.85;79.14
58243;BME280;50118;53.232;8.252;2023-08-06T10:22:33;100424.81;;;21.71;81.34
58243;BME280;50118;53.232;8.252;2023-08-06T10:24:59;100421.66;;;22.23;74.71
58243;BME280;50118;53.232;8.252;2023-08-06T10:27:56;100425.59;;;22.09;73.10
58243;BME280;50118;53.232;8.252;2023-08-06T10:30:29;100418.47;;;21.40;72.79
58243;BME280;50118;53.232;8.252;2023-08-06T10:32:56;100415.72;;;22.87;73.03
58243;BME280;50118;53.232;8.252;2023-08-06T10:38:15;100417.91;;;20.56;81.71
58243;BME280;50118;53.232;8.252;2023-08-06T10:40:43;100420.66;;;21.50;83.45
58243;BME280;50118;53.232;8.252;2023-08-06T10:43:28;100401.91;;;22.34;72.75
58243;BME280;50118;53.232;8.252;2023-08-06T10:45:55;100413.88;;;22.27;76.54
58243;BME280;50118;53.232;8.252;2023-08-06T10:48:35;100408.81;;;22.61;74.10
58243;BME280;50118;53.232;8.252;2023-08-06T10:51:08;100411.22;;;22.81;74.52
58243;BME280;50118;53.232;8.252;2023-08-06T10:53:33;100419.56;;;21.33;77.64
58243;BME280;50118;53.232;8.252;2023-08-06T10:55:59;100411.25;;;20.59;82.68
58243;BME280;50118;53.232;8.252;2023-08-06T10:58:25;100413.31;;;21.57;85.22
58243;BME280;50118;53.232;8.252;2023-08-06T11:00:51;100413.97;;;21.90;80.00
58243;BME280;50118;53.232;8.252;2023-08-06T11:03:17;100411.44;;;21.33;83.72
58243;BME280;50118;53.232;8.252;2023-08-06T11:05:48;100408.75;;;20.64;85.47
58243;BME280;50118;53.232;8.252;2023-08-06T11:08:22;100412.44;;;21.20;83.17
58243;BME280;50118;53.232;8.252;2023-08-06T11:10:48;100409.66;;;22.00;77.94
58243;BME280;50118;53.232;8.252;2023-08-06T11:13:17;100403.22;;;21.64;78.34
58243;BME280;50118;53.232;8.252;2023-08-06T11:15:44;100409.63;;;21.26;73.07
58243;BME280;50118;53.232;8.252;2023-08-06T11:18:10;100401.53;;;21.82;74.76
58243;BME280;50118;53.232;8.252;2023-08-06T11:20:36;100403.72;;;21.92;69.45
58243;BME280;50118;53.232;8.252;2023-08-06T11:23:02;100401.00;;;22.52;72.25
58243;BME280;50118;53.232;8.252;2023-08-06T11:25:28;100400.63;;;22.18;73.60
58243;BME280;50118;53.232;8.252;2023-08-06T11:27:54;100397.22;;;23.19;71.25
58243;BME280;50118;53.232;8.252;2023-08-06T11:30:19;100404.19;;;22.49;68.74
58243;BME280;50118;53.232;8.252;2023-08-06T11:32:46;100402.41;;;21.64;71.94
58243;BME280;50118;53.232;8.252;2023-08-06T11:35:12;100390.31;;;22.27;70.92
58243;BME280;50118;53.232;8.252;2023-08-06T11:37:39;100392.13;;;22.15;72.76
58243;BME280;50118;53.232;8.252;2023-08-06T11:40:09;100394.06;;;21.96;70.69
58243;BME280;50118;53.232;8.252;2023-08-06T11:42:36;100403.66;;;21.61;74.23
58243;BME280;50118;53.232;8.252;2023-08-06T11:45:02;100401.84;;;21.55;75.91
58243;BME280;50118;53.232;8.252;2023-08-06T11:47:29;100399.47;;;23.10;72.14
58243;BME280;50118;53.232;8.252;2023-08-06T11:49:55;100403.81;;;23.35;72.34
58243;BME280;50118;53.232;8.252;2023-08-06T11:52:22;100393.38;;;22.97;71.83
58243;BME280;50118;53.232;8.252;2023-08-06T11:57:29;100399.16;;;23.00;71.30
58243;BME280;50118;53.232;8.252;2023-08-06T12:00:02;100406.47;;;21.30;79.07
58243;BME280;50118;53.232;8.252;2023-08-06T12:02:31;100408.75;;;21.33;80.89
58243;BME280;50118;53.232;8.252;2023-08-06T12:05:19;100400.41;;;20.27;83.83
58243;BME280;50118;53.232;8.252;2023-08-06T12:07:55;100396.19;;;20.95;83.79
58243;BME280;50118;53.232;8.252;2023-08-06T12:10:23;100385.50;;;20.49;88.46
58243;BME280;50118;53.232;8.252;2023-08-06T12:12:49;100392.38;;;20.13;87.67
58243;BME280;50118;53.232;8.252;2023-08-06T12:15:15;100382.06;;;19.97;91.06
58243;BME280;50118;53.232;8.252;2023-08-06T12:17:40;100376.72;;;20.22;88.38
58243;BME280;50118;53.232;8.252;2023-08-06T12:20:07;100370.94;;;20.50;84.31
58243;BME280;50118;53.232;8.252;2023-08-06T12:22:33;100378.78;;;21.27;79.11
58243;BME280;50118;53.232;8.252;2023-08-06T12:25:05;100372.72;;;21.99;74.96
58243;BME280;50118;53.232;8.252;2023-08-06T12:27:36;100381.81;;;21.75;78.02
58243;BME280;50118;53.232;8.252;2023-08-06T12:30:03;100378.44;;;21.42;76.16
58243;BME280;50118;53.232;8.252;2023-08-06T12:32:29;100382.88;;;21.55;78.33
58243;BME280;50118;53.232;8.252;2023-08-06T12:34:54;100378.03;;;21.76;76.08
58243;BME280;50118;53.232;8.252;2023-08-06T12:37:20;100373.69;;;22.35;74.78
58243;BME280;50118;53.232;8.252;2023-08-06T12:39:45;100376.47;;;21.68;71.19
58243;BME280;50118;53.232;8.252;2023-08-06T12:42:11;100372.25;;;21.72;75.77
58243;BME280;50118;53.232;8.252;2023-08-06T12:44:36;100375.31;;;21.94;73.21
58243;BME280;50118;53.232;8.252;2023-08-06T12:47:02;100375.22;;;22.31;75.05
58243;BME280;50118;53.232;8.252;2023-08-06T12:49:27;100369.78;;;22.01;75.90
58243;BME280;50118;53.232;8.252;2023-08-06T12:51:54;100376.72;;;21.48;76.60